GCLPFMMI

Guest
Details From GCLP - Gran Canaria - Gando
To FMMI - Ivato
Flight Number -
Tags Generated
Created
Modified
Stats Distance 4,604 nm / 8,526 km
Max Altitude 0 ft / 0 m
Waypoints 6
Social Downloads 0
Likes 0
Share VATSIM

Download

Looking for another format? Having issues loading an existing format? Contact us
Advertisement - Login to hide

Notes

Generated

Route

GCLP MY TEKTI LUNSA IA FMMI

ID Type Via Altitude Latitude Longitude Leg Dist Tot Dist Heading (true) Name
O GCLP APT - 0 ft / 0 m 27.91818˚ -15.39035˚ - 0 nm - -
MY NDB - 0 ft / 0 m 13.50075˚ 7.10900˚ 1527 nm 1527 nm 120° / 128° MARADI NDB
TEKTI FIX - 0 ft / 0 m 4.00000˚ 18.73667˚ 894 nm 2422 nm 129° / 130° -
LUNSA FIX - 0 ft / 0 m 1.95017˚ 21.11667˚ 188 nm 2610 nm 131° / 131° -
IA NDB - 0 ft / 0 m -18.79336˚ 47.45492˚ 1992 nm 4603 nm 130° / 126° ANTANANARIVO IVATO NDB
O FMMI APT - 0 ft / 0 m -18.79479˚ 47.46427˚ 0 nm 4603 nm 99° / 99° -

Altitude Profile

Advertisement - Login to hide

Weather


0- 5 10 15 20 25 30 35+ Temperature / ° C

Clouds and Precipitation
Forecast for 2018-05-20 12:00 UTC. Updated an hour ago

Ground ~20,000 ft ~40,000 ft Winds

GCLP

Details ICAO GCLP (LPA)
Name Gran Canaria
Region Canary Islands
Timezone Atlantic/Canary (UTC+1.0)
Stats Elevation 77 ft / 23 m (AMSL)
Location 27.931544° -15.385592°
Runways 2
Magnetic Variation 4.635° W

METAR

GCLP 201000Z 02017KT 360V060 9999 FEW025 BKN050 21/09 Q1017 NOSIG

Decode

TAF

TAF GCLP 200800Z 2009/2109 02018KT 9999 SCT030 TX23/2015Z TN16/2105Z PROB30 TEMPO 2012/2018 02018G28KT BECMG 2020/2022 32013KT

Decode

Departure Runways

ID Width Length Bearing (true) Bearing (mag) Surface Threshold Offset Overrun Length
03L 148 ft / 45 m 10,203 ft / 3,110 m 21.33° 25.96° Asphalt 0 ft / 0 m 656 ft / 200 m
03R 148 ft / 45 m 10,200 ft / 3,109 m 21.32° 25.95° Asphalt 0 ft / 0 m 673 ft / 205 m
21L 148 ft / 45 m 10,200 ft / 3,109 m 201.33° 205.96° Asphalt 0 ft / 0 m 689 ft / 210 m
21R 148 ft / 45 m 10,203 ft / 3,110 m 201.33° 205.96° Asphalt 0 ft / 0 m 755 ft / 230 m

FMMI

Details ICAO FMMI (TNR)
Name IVATO
Region Comoros, Mayotte, Réunion and Madagascar
Timezone Indian/Antananarivo (UTC+3.0)
Stats Elevation 4,198 ft / 1,280 m (AMSL)
Location -18.796950° 47.478806°
Runways 1
Magnetic Variation 15.172° W

METAR

FMMI 201000Z 15013KT 110V180 9999 BKN023 20/11 Q1021 NOSIG

Decode

TAF

TAF FMMI 200500Z 2006/2112 14010KT 9999 FEW016 BKN020 PROB30 TEMPO 2013/2103 4500 DZRA

Decode

Destination Runways

ID Width Length Bearing (true) Bearing (mag) Surface Threshold Offset Overrun Length
11 148 ft / 45 m 10,167 ft / 3,099 m 98.92° 114.09° Asphalt 0 ft / 0 m 90 ft / 27 m
29 148 ft / 45 m 10,167 ft / 3,099 m 278.91° 294.08° Asphalt 0 ft / 0 m 90 ft / 27 m

Approach Navaids

Runway Type Ident Frequency Range Bearing (true) Bearing (mag) Slope Elevation
11 Localiser IO 109.50 MHz 18 nm / 33 km 98.89° 114.06° - 4,125 ft / 1,257 m (AMSL)
11 Glidescope IO 109.50 MHz 10 nm / 19 km 98.91° 114.08° 3.00° 4,198 ft / 1,280 m (AMSL)